Terminal Aerodrome Forecast
Issued by NWS

Home | Current Version | Previous Version | Text Only | Print | Product List | Glossary On
Versions: 1 2 3 4 5 6 7 8 9 10 11 12
000
FTUS44 KEPZ 231720
TAFLRU
TAF
KLRU 231720Z 2318/2418 17013G23KT P6SM SKC
     FM240200 15008KT P6SM SKC
     FM241700 25020G30KT P6SM SKC=

USA.gov is the U.S. government's official web portal to all federal, state and local government web resources and services.